createdAt,value
2019-03-22T00:01:18.039Z,10.90
2019-03-22T00:03:46.497Z,10.80
2019-03-22T00:06:14.988Z,10.80
2019-03-22T00:08:43.446Z,10.80
2019-03-22T00:11:13.248Z,10.80
2019-03-22T00:13:41.773Z,10.80
2019-03-22T00:16:10.304Z,10.80
2019-03-22T00:18:38.841Z,10.70
2019-03-22T00:21:07.326Z,10.70
2019-03-22T00:23:35.920Z,10.70
2019-03-22T00:26:06.595Z,10.70
2019-03-22T00:28:35.121Z,10.70
2019-03-22T00:31:03.634Z,10.70
2019-03-22T00:33:32.116Z,10.70
2019-03-22T00:36:00.702Z,10.70
2019-03-22T00:38:29.520Z,10.70
2019-03-22T00:40:58.023Z,10.70
2019-03-22T00:43:26.582Z,10.70
2019-03-22T00:45:58.079Z,10.70
2019-03-22T00:48:26.650Z,10.60
2019-03-22T00:50:55.575Z,10.60
2019-03-22T00:53:24.146Z,10.60
2019-03-22T00:55:52.785Z,10.60
2019-03-22T00:58:21.431Z,10.60
2019-03-22T01:00:52.314Z,10.50
2019-03-22T01:03:20.240Z,10.50
2019-03-22T01:05:48.824Z,10.50
2019-03-22T01:08:20.227Z,10.50
2019-03-22T01:10:48.895Z,10.50
2019-03-22T01:13:19.008Z,10.40
2019-03-22T01:15:47.581Z,10.40
2019-03-22T01:18:17.822Z,10.40
2019-03-22T01:20:46.397Z,10.40
2019-03-22T01:23:14.952Z,10.30
2019-03-22T01:25:43.541Z,10.30
2019-03-22T01:28:14.798Z,10.30
2019-03-22T01:30:43.370Z,10.20
2019-03-22T01:33:11.974Z,10.20
2019-03-22T01:35:40.544Z,10.20
2019-03-22T01:38:09.100Z,10.20
2019-03-22T01:40:37.688Z,10.20
2019-03-22T01:43:06.253Z,10.10
2019-03-22T01:45:37.270Z,10.10
2019-03-22T01:48:05.992Z,10.10
2019-03-22T01:50:41.774Z,10.00
2019-03-22T01:53:22.007Z,10.00
2019-03-22T01:56:13.850Z,10.00
2019-03-22T01:59:06.841Z,10.00
2019-03-22T02:04:37.989Z,9.90
2019-03-22T02:07:10.873Z,9.90
2019-03-22T02:09:42.488Z,9.90
2019-03-22T02:12:11.387Z,9.90
2019-03-22T02:14:39.961Z,9.90
2019-03-22T02:17:08.580Z,9.90
2019-03-22T02:19:37.157Z,9.80
2019-03-22T02:22:11.739Z,9.80
2019-03-22T02:24:43.095Z,9.80
2019-03-22T02:27:11.739Z,9.80
2019-03-22T02:29:44.344Z,9.80
2019-03-22T02:32:12.053Z,9.70
2019-03-22T02:34:42.145Z,9.70
2019-03-22T02:37:12.256Z,9.70
2019-03-22T02:39:42.483Z,9.70
2019-03-22T02:42:14.143Z,9.70
2019-03-22T02:44:42.737Z,9.70
2019-03-22T02:47:13.850Z,9.70
2019-03-22T02:49:42.442Z,9.70
2019-03-22T02:52:13.435Z,9.60
2019-03-22T02:54:41.994Z,9.60
2019-03-22T02:57:10.598Z,9.60
2019-03-22T02:59:39.181Z,9.60
2019-03-22T03:02:08.004Z,9.60
2019-03-22T03:04:36.672Z,9.60
2019-03-22T03:07:07.966Z,9.60
2019-03-22T03:09:36.635Z,9.50
2019-03-22T03:12:05.639Z,9.50
2019-03-22T03:14:34.237Z,9.50
2019-03-22T03:17:02.817Z,9.50
2019-03-22T03:19:39.952Z,9.50
2019-03-22T03:22:08.607Z,9.50
2019-03-22T03:24:37.169Z,9.40
2019-03-22T03:27:06.888Z,9.40
2019-03-22T03:29:35.412Z,9.40
2019-03-22T03:32:04.129Z,9.40
2019-03-22T03:34:36.277Z,9.40
2019-03-22T03:37:04.829Z,9.40
2019-03-22T03:39:33.432Z,9.40
2019-03-22T03:42:02.239Z,9.30
2019-03-22T03:44:30.803Z,9.30
2019-03-22T03:47:10.469Z,9.30
2019-03-22T03:49:44.557Z,9.30
2019-03-22T03:52:13.155Z,9.30
2019-03-22T03:54:41.732Z,9.20
2019-03-22T03:57:11.085Z,9.20
2019-03-22T03:59:39.683Z,9.20
2019-03-22T04:02:08.250Z,9.20
2019-03-22T04:04:36.825Z,9.30
2019-03-22T04:07:06.973Z,9.20
2019-03-22T04:09:37.060Z,9.20
2019-03-22T04:12:05.714Z,9.20
2019-03-22T04:14:34.281Z,9.20
2019-03-22T04:17:02.879Z,9.10
2019-03-22T04:19:31.435Z,9.10
2019-03-22T04:21:59.998Z,9.10
2019-03-22T04:24:28.646Z,9.10
2019-03-22T04:26:57.493Z,9.10
2019-03-22T04:29:26.079Z,9.10
2019-03-22T04:31:57.462Z,9.00
2019-03-22T04:34:27.579Z,9.00
2019-03-22T04:36:56.180Z,9.00
2019-03-22T04:39:25.070Z,9.00
2019-03-22T04:41:53.717Z,9.00
2019-03-22T04:44:22.291Z,9.00
2019-03-22T04:46:51.522Z,9.00
2019-03-22T04:49:22.727Z,9.00
2019-03-22T04:51:52.837Z,8.90
2019-03-22T04:54:21.968Z,8.90
2019-03-22T04:56:53.971Z,8.90
2019-03-22T04:59:23.312Z,8.60
2019-03-22T05:01:54.722Z,8.90
2019-03-22T05:04:24.844Z,8.90
2019-03-22T05:06:53.758Z,8.80
2019-03-22T05:09:25.418Z,8.80
2019-03-22T05:11:55.040Z,8.80
2019-03-22T05:14:25.035Z,8.80
2019-03-22T05:16:55.217Z,8.80
2019-03-22T05:19:29.284Z,8.80
2019-03-22T05:21:59.075Z,8.80
2019-03-22T05:24:29.334Z,8.80
2019-03-22T05:26:59.625Z,8.80
2019-03-22T05:29:31.260Z,8.70
2019-03-22T05:32:02.916Z,8.80
2019-03-22T05:34:31.549Z,8.70
2019-03-22T05:37:00.153Z,8.70
2019-03-22T05:39:28.800Z,8.70
2019-03-22T05:41:57.426Z,8.70
2019-03-22T05:44:32.137Z,8.70
2019-03-22T05:47:09.099Z,8.70
2019-03-22T05:49:38.044Z,8.70
2019-03-22T05:52:06.633Z,8.70
2019-03-22T05:54:35.202Z,8.70
2019-03-22T05:57:12.753Z,8.80
2019-03-22T05:59:42.560Z,8.80
2019-03-22T06:02:05.457Z,8.80
2019-03-22T06:04:51.911Z,8.80
2019-03-22T06:07:31.327Z,8.80
2019-03-22T06:10:00.457Z,8.80
2019-03-22T06:12:29.096Z,8.80
2019-03-22T06:14:57.694Z,8.80
2019-03-22T06:17:30.651Z,8.80
2019-03-22T06:19:59.215Z,8.80
2019-03-22T06:22:27.840Z,8.80
2019-03-22T06:24:59.041Z,8.80
2019-03-22T06:27:27.625Z,8.80
2019-03-22T06:30:04.486Z,8.80
2019-03-22T06:32:35.905Z,8.80
2019-03-22T06:35:06.436Z,8.90
2019-03-22T06:37:37.893Z,8.90
2019-03-22T06:40:24.052Z,8.90
2019-03-22T06:42:54.193Z,8.90
2019-03-22T06:45:22.835Z,8.90
2019-03-22T06:48:21.972Z,8.90
2019-03-22T06:50:56.294Z,9.00
2019-03-22T06:53:35.624Z,9.00
2019-03-22T06:56:16.778Z,9.00
2019-03-22T06:59:01.752Z,9.00
2019-03-22T07:01:34.840Z,9.10
2019-03-22T07:04:05.016Z,9.10
2019-03-22T07:06:35.411Z,9.20
2019-03-22T07:09:06.346Z,9.20
2019-03-22T07:11:34.897Z,9.20
2019-03-22T07:14:03.561Z,9.30
2019-03-22T07:16:34.658Z,9.30
2019-03-22T07:19:18.395Z,9.40
2019-03-22T07:21:48.567Z,9.40
2019-03-22T07:24:36.794Z,9.40
2019-03-22T07:27:14.976Z,9.40
2019-03-22T07:29:48.287Z,9.40
2019-03-22T07:32:20.912Z,9.40
2019-03-22T07:34:49.524Z,9.50
2019-03-22T07:37:18.199Z,9.50
2019-03-22T07:39:48.743Z,9.50
2019-03-22T07:42:17.682Z,9.60
2019-03-22T07:44:46.288Z,9.60
2019-03-22T07:47:16.403Z,9.60
2019-03-22T07:49:48.843Z,9.70
2019-03-22T07:52:17.401Z,9.70
2019-03-22T07:54:45.981Z,9.80
2019-03-22T07:57:16.196Z,9.80
2019-03-22T07:59:44.783Z,9.90
2019-03-22T08:02:13.511Z,9.90
2019-03-22T08:04:42.061Z,9.90
2019-03-22T08:07:10.631Z,10.00
2019-03-22T08:09:39.248Z,10.00
2019-03-22T08:12:07.804Z,10.10
2019-03-22T08:14:39.371Z,10.10
2019-03-22T08:17:11.074Z,10.20
2019-03-22T08:19:39.724Z,10.20
2019-03-22T08:22:08.427Z,10.30
2019-03-22T08:24:36.994Z,10.40
2019-03-22T08:27:05.598Z,10.50
2019-03-22T08:29:34.191Z,10.50
2019-03-22T08:32:23.618Z,10.50
2019-03-22T08:34:52.241Z,10.50
2019-03-22T08:37:20.880Z,10.60
2019-03-22T08:39:50.364Z,10.60
2019-03-22T08:42:19.253Z,10.60
2019-03-22T08:48:01.017Z,10.80
2019-03-22T08:53:38.805Z,11.00
2019-03-22T08:56:13.207Z,11.10
2019-03-22T08:58:46.267Z,11.10
2019-03-22T09:01:14.025Z,11.10
2019-03-22T09:03:42.582Z,11.10
2019-03-22T09:06:12.947Z,11.20
2019-03-22T09:08:41.455Z,11.20
2019-03-22T09:11:10.151Z,11.30
2019-03-22T09:13:38.822Z,11.40
2019-03-22T09:16:07.361Z,11.50
2019-03-22T09:18:36.482Z,11.60
2019-03-22T09:21:05.164Z,11.70
2019-03-22T09:23:33.819Z,11.80
2019-03-22T09:26:02.467Z,11.90
2019-03-22T09:28:30.992Z,11.90
2019-03-22T09:31:09.821Z,12.00
2019-03-22T09:33:32.619Z,12.00
2019-03-22T09:36:01.187Z,12.00
2019-03-22T09:38:29.825Z,12.10
2019-03-22T09:40:58.440Z,12.20
2019-03-22T09:43:27.105Z,12.20
2019-03-22T09:45:58.821Z,12.30
2019-03-22T09:48:27.855Z,12.40
2019-03-22T09:50:56.390Z,12.40
2019-03-22T09:53:24.977Z,12.50
2019-03-22T09:55:53.685Z,12.70
2019-03-22T09:58:32.924Z,12.70
2019-03-22T10:01:04.340Z,12.80
2019-03-22T10:03:32.993Z,12.90
2019-03-22T10:06:01.664Z,13.00
2019-03-22T10:08:31.286Z,13.20
2019-03-22T10:10:59.841Z,13.20
2019-03-22T10:13:32.249Z,13.30
2019-03-22T10:16:01.011Z,13.30
2019-03-22T10:18:38.899Z,13.40
2019-03-22T10:21:22.254Z,13.50
2019-03-22T10:23:45.434Z,13.60
2019-03-22T10:26:19.157Z,13.70
2019-03-22T10:28:47.371Z,13.80
2019-03-22T10:31:19.844Z,13.80
2019-03-22T10:33:52.562Z,13.80
2019-03-22T10:36:23.582Z,13.90
2019-03-22T10:38:52.194Z,13.90
2019-03-22T10:41:20.805Z,13.90
2019-03-22T10:43:57.189Z,13.90
2019-03-22T10:46:25.960Z,14.00
2019-03-22T10:48:57.573Z,14.10
2019-03-22T10:51:56.610Z,14.30
2019-03-22T10:54:27.189Z,14.40
2019-03-22T10:57:04.734Z,14.40
2019-03-22T10:59:41.508Z,14.50
2019-03-22T11:02:29.508Z,14.60
2019-03-22T11:05:14.508Z,14.70
2019-03-22T11:07:44.663Z,14.70
2019-03-22T11:10:13.998Z,14.80
2019-03-22T11:12:42.587Z,14.90
2019-03-22T11:15:12.807Z,15.00
2019-03-22T11:17:41.485Z,14.90
2019-03-22T11:20:15.795Z,14.80
2019-03-22T11:22:47.183Z,14.70
2019-03-22T11:25:15.918Z,14.80
2019-03-22T11:27:47.232Z,14.80
2019-03-22T11:30:18.435Z,14.70
2019-03-22T11:32:47.084Z,14.70
2019-03-22T11:35:15.830Z,14.80
2019-03-22T11:37:45.968Z,14.80
2019-03-22T11:40:16.085Z,15.00
2019-03-22T11:42:46.464Z,15.10
2019-03-22T11:45:20.448Z,15.10
2019-03-22T11:47:49.176Z,15.30
2019-03-22T11:50:17.811Z,15.30
2019-03-22T11:52:49.631Z,15.40
2019-03-22T11:55:18.336Z,15.30
2019-03-22T11:57:48.063Z,15.20
2019-03-22T12:00:22.386Z,15.10
2019-03-22T12:02:51.052Z,15.20
2019-03-22T12:05:20.353Z,15.20
2019-03-22T12:07:49.813Z,15.30
2019-03-22T12:10:27.828Z,15.30
2019-03-22T12:13:04.162Z,15.40
2019-03-22T12:15:33.062Z,15.60
2019-03-22T12:18:03.909Z,15.80
2019-03-22T12:20:32.218Z,15.90
2019-03-22T12:23:00.932Z,15.90
2019-03-22T12:25:32.589Z,16.00
2019-03-22T12:28:01.241Z,16.00
2019-03-22T12:30:29.802Z,16.00
2019-03-22T12:32:58.416Z,15.90
2019-03-22T12:35:27.025Z,15.80
2019-03-22T12:37:57.646Z,15.50
2019-03-22T12:40:25.998Z,15.50
2019-03-22T12:42:56.519Z,15.70
2019-03-22T12:45:29.799Z,15.80
2019-03-22T12:48:01.243Z,15.90
2019-03-22T12:50:33.139Z,15.80
2019-03-22T12:53:01.795Z,15.60
2019-03-22T12:55:30.362Z,15.40
2019-03-22T12:57:59.560Z,15.50
2019-03-22T13:00:28.376Z,15.60
2019-03-22T13:02:57.024Z,15.90
2019-03-22T13:05:25.606Z,15.90
2019-03-22T13:07:54.175Z,15.90
2019-03-22T13:10:25.834Z,16.00
2019-03-22T13:12:55.129Z,16.00
2019-03-22T13:15:23.892Z,16.20
2019-03-22T13:17:52.576Z,16.40
2019-03-22T13:20:23.915Z,16.60
2019-03-22T13:22:54.129Z,16.70
2019-03-22T13:25:27.225Z,16.90
2019-03-22T13:27:58.296Z,17.20
2019-03-22T13:30:49.069Z,17.20
2019-03-22T13:33:17.664Z,17.30
2019-03-22T13:35:46.253Z,17.70
2019-03-22T13:38:14.824Z,17.90
2019-03-22T13:40:44.958Z,17.80
2019-03-22T13:43:13.581Z,17.50
2019-03-22T13:45:42.185Z,17.30
2019-03-22T13:48:10.731Z,17.30
2019-03-22T13:50:39.322Z,17.10
2019-03-22T13:53:08.001Z,17.00
2019-03-22T13:55:38.204Z,17.00
2019-03-22T13:58:06.849Z,17.10
2019-03-22T14:00:36.342Z,17.50
2019-03-22T14:03:04.966Z,17.80
2019-03-22T14:05:39.308Z,18.00
2019-03-22T14:08:07.881Z,18.00
2019-03-22T14:10:36.928Z,18.10
2019-03-22T14:13:09.327Z,18.50
2019-03-22T14:15:37.921Z,18.60
2019-03-22T14:18:06.767Z,18.60
2019-03-22T14:20:35.389Z,18.50
2019-03-22T14:23:06.800Z,18.40
2019-03-22T14:25:35.455Z,18.10
2019-03-22T14:28:05.555Z,18.40
2019-03-22T14:30:38.450Z,18.80
2019-03-22T14:33:13.558Z,19.20
2019-03-22T14:35:40.734Z,19.60
2019-03-22T14:38:09.414Z,19.70
2019-03-22T14:40:39.562Z,19.70
2019-03-22T14:43:12.485Z,19.60
2019-03-22T14:45:47.920Z,19.30
2019-03-22T14:48:18.088Z,19.40
2019-03-22T14:50:51.276Z,19.40
2019-03-22T14:53:22.824Z,19.20
2019-03-22T14:55:57.087Z,18.90
2019-03-22T14:58:33.669Z,18.70
2019-03-22T15:01:02.295Z,19.30
2019-03-22T15:03:31.181Z,20.00
2019-03-22T15:05:59.828Z,20.10
2019-03-22T15:08:35.668Z,19.90
2019-03-22T15:11:09.870Z,19.60
2019-03-22T15:13:42.780Z,19.40
2019-03-22T15:16:31.695Z,19.40
2019-03-22T15:19:16.767Z,20.00
2019-03-22T15:22:06.094Z,20.00
2019-03-22T15:24:36.340Z,19.90
2019-03-22T15:27:09.146Z,19.70
2019-03-22T15:29:55.653Z,19.60
2019-03-22T15:32:25.856Z,19.30
2019-03-22T15:34:59.044Z,19.10
2019-03-22T15:37:45.771Z,19.20
2019-03-22T15:40:25.211Z,19.50
2019-03-22T15:42:55.015Z,19.50
2019-03-22T15:45:26.523Z,19.50
2019-03-22T15:47:55.217Z,19.30
2019-03-22T15:50:23.784Z,19.30
2019-03-22T15:52:55.693Z,19.20
2019-03-22T15:55:24.482Z,19.20
2019-03-22T15:57:53.168Z,19.40
2019-03-22T16:00:21.989Z,19.50
2019-03-22T16:02:54.334Z,19.40
2019-03-22T16:05:23.667Z,19.60
2019-03-22T16:07:52.294Z,19.80
2019-03-22T16:10:23.884Z,19.80
2019-03-22T16:12:52.467Z,19.80
2019-03-22T16:15:21.213Z,19.70
2019-03-22T16:17:49.781Z,19.50
2019-03-22T16:20:18.516Z,19.30
2019-03-22T16:22:49.219Z,19.40
2019-03-22T16:25:17.901Z,19.70
2019-03-22T16:27:46.560Z,19.60
2019-03-22T16:30:15.551Z,19.90
2019-03-22T16:32:44.231Z,20.30
2019-03-22T16:35:13.177Z,20.50
2019-03-22T16:37:41.764Z,20.50
2019-03-22T16:40:12.170Z,20.40
2019-03-22T16:42:40.727Z,20.20
2019-03-22T16:45:11.163Z,20.30
2019-03-22T16:47:41.268Z,20.60
2019-03-22T16:50:24.011Z,20.70
2019-03-22T16:52:52.595Z,20.70
2019-03-22T16:55:24.170Z,20.90
2019-03-22T16:57:52.759Z,21.20
2019-03-22T17:00:27.072Z,21.20
2019-03-22T17:03:02.353Z,21.40
2019-03-22T17:05:36.071Z,21.40
2019-03-22T17:08:06.941Z,21.30
2019-03-22T17:10:37.519Z,21.20
2019-03-22T17:13:07.380Z,21.00
2019-03-22T17:15:35.963Z,21.00
2019-03-22T17:18:05.738Z,21.00
2019-03-22T17:20:34.300Z,20.90
2019-03-22T17:23:03.059Z,20.80
2019-03-22T17:25:31.597Z,20.60
2019-03-22T17:28:00.242Z,20.50
2019-03-22T17:30:28.890Z,20.20
2019-03-22T17:33:01.364Z,20.10
2019-03-22T17:35:29.885Z,20.00
2019-03-22T17:37:58.549Z,19.90
2019-03-22T17:40:27.199Z,19.80
2019-03-22T17:42:55.785Z,19.70
2019-03-22T17:45:24.431Z,19.50
2019-03-22T17:47:53.029Z,19.40
2019-03-22T17:50:21.691Z,19.30
2019-03-22T17:52:50.267Z,19.10
2019-03-22T17:55:18.937Z,19.10
2019-03-22T17:57:47.491Z,19.00
2019-03-22T18:00:20.093Z,18.90
2019-03-22T18:02:48.755Z,18.90
2019-03-22T18:05:17.479Z,18.80
2019-03-22T18:07:46.405Z,18.80
2019-03-22T18:10:18.880Z,18.70
2019-03-22T18:12:54.901Z,18.60
2019-03-22T18:15:26.182Z,18.50
2019-03-22T18:17:57.455Z,18.40
2019-03-22T18:20:26.032Z,18.30
2019-03-22T18:22:54.658Z,18.30
2019-03-22T18:25:23.211Z,18.20
2019-03-22T18:27:52.344Z,18.20
2019-03-22T18:30:21.015Z,18.00
2019-03-22T18:32:51.721Z,17.90
2019-03-22T18:35:20.347Z,17.80
2019-03-22T18:37:48.912Z,17.70
2019-03-22T18:40:19.144Z,17.60
2019-03-22T18:42:47.880Z,17.50
2019-03-22T18:45:16.435Z,17.40
2019-03-22T18:47:45.054Z,17.30
2019-03-22T18:50:14.077Z,17.20
2019-03-22T18:52:42.789Z,17.20
2019-03-22T18:55:11.543Z,17.10
2019-03-22T18:57:40.178Z,17.10
2019-03-22T19:00:18.006Z,17.10
2019-03-22T19:02:46.643Z,17.00
2019-03-22T19:05:15.577Z,17.00
2019-03-22T19:07:44.165Z,16.90
2019-03-22T19:10:14.831Z,16.90
2019-03-22T19:12:43.406Z,16.90
2019-03-22T19:15:13.337Z,16.90
2019-03-22T19:17:42.060Z,16.90
2019-03-22T19:20:13.421Z,16.90
2019-03-22T19:22:42.124Z,16.90
2019-03-22T19:25:14.378Z,16.90
2019-03-22T19:27:42.719Z,16.90
2019-03-22T19:30:14.214Z,16.90
2019-03-22T19:32:42.896Z,16.90
2019-03-22T19:35:11.597Z,16.90
2019-03-22T19:37:42.897Z,16.90
2019-03-22T19:40:13.980Z,17.00
2019-03-22T19:42:43.083Z,16.90
2019-03-22T19:45:19.931Z,16.90
2019-03-22T19:47:48.469Z,16.80
2019-03-22T19:50:18.005Z,16.70
2019-03-22T19:52:50.081Z,16.60
2019-03-22T19:55:21.538Z,16.60
2019-03-22T19:57:50.217Z,16.50
2019-03-22T20:00:20.009Z,16.50
2019-03-22T20:02:49.374Z,16.60
2019-03-22T20:05:32.276Z,16.60
2019-03-22T20:08:13.654Z,16.70
2019-03-22T20:10:40.284Z,16.70
2019-03-22T20:13:11.366Z,16.60
2019-03-22T20:15:39.947Z,16.60
2019-03-22T20:18:08.616Z,16.60
2019-03-22T20:20:37.217Z,16.50
2019-03-22T20:23:05.959Z,16.50
2019-03-22T20:25:34.604Z,16.40
2019-03-22T20:28:03.202Z,16.40
2019-03-22T20:30:31.825Z,16.30
2019-03-22T20:33:02.969Z,16.20
2019-03-22T20:35:31.618Z,16.20
2019-03-22T20:38:00.247Z,16.10
2019-03-22T20:40:31.421Z,16.10
2019-03-22T20:43:02.585Z,16.00
2019-03-22T20:45:31.172Z,16.00
2019-03-22T20:47:59.765Z,15.90
2019-03-22T20:50:35.847Z,15.90
2019-03-22T20:53:02.658Z,15.90
2019-03-22T20:55:32.847Z,15.80
2019-03-22T20:58:01.436Z,15.80
2019-03-22T21:00:30.271Z,15.80
2019-03-22T21:02:58.876Z,15.70
2019-03-22T21:05:29.109Z,15.70
2019-03-22T21:07:57.758Z,15.70
2019-03-22T21:10:26.371Z,15.60
2019-03-22T21:12:54.961Z,15.50
2019-03-22T21:15:24.971Z,15.50
2019-03-22T21:17:53.550Z,15.40
2019-03-22T21:20:22.178Z,15.40
2019-03-22T21:22:50.854Z,15.30
2019-03-22T21:25:19.569Z,15.30
2019-03-22T21:27:48.265Z,15.20
2019-03-22T21:30:16.973Z,15.20
2019-03-22T21:32:46.531Z,15.20
2019-03-22T21:35:22.369Z,15.10
2019-03-22T21:43:23.819Z,15.10
2019-03-22T21:45:52.416Z,15.00
2019-03-22T21:48:21.040Z,14.90
2019-03-22T21:50:51.148Z,14.90
2019-03-22T21:53:19.839Z,14.90
2019-03-22T21:55:58.477Z,14.90
2019-03-22T21:58:27.090Z,14.80
2019-03-22T22:00:56.012Z,14.80
2019-03-22T22:03:24.689Z,14.80
2019-03-22T22:05:56.333Z,14.80
2019-03-22T22:08:24.931Z,14.70
2019-03-22T22:10:59.650Z,14.70
2019-03-22T22:13:23.889Z,14.70
2019-03-22T22:15:52.490Z,14.60
2019-03-22T22:18:21.074Z,14.60
2019-03-22T22:20:49.672Z,14.60
2019-03-22T22:23:18.371Z,14.60
2019-03-22T22:25:46.877Z,14.50
2019-03-22T22:28:17.087Z,14.40
2019-03-22T22:30:48.413Z,14.40
2019-03-22T22:33:17.059Z,14.40
2019-03-22T22:35:46.972Z,14.30
2019-03-22T22:38:15.561Z,14.30
2019-03-22T22:40:45.741Z,14.20
2019-03-22T22:43:14.431Z,14.20
2019-03-22T22:45:45.247Z,14.20
2019-03-22T22:48:16.902Z,14.20
2019-03-22T22:50:45.467Z,14.20
2019-03-22T22:53:14.040Z,14.20
2019-03-22T22:55:52.330Z,14.20
2019-03-22T22:58:29.741Z,14.10
2019-03-22T23:01:10.304Z,14.10
2019-03-22T23:03:51.873Z,14.10
2019-03-22T23:06:23.470Z,14.10
2019-03-22T23:09:17.195Z,14.10
2019-03-22T23:11:45.811Z,14.10
2019-03-22T23:14:14.572Z,14.00
2019-03-22T23:16:43.218Z,14.00
2019-03-22T23:19:11.821Z,14.00
2019-03-22T23:21:40.460Z,13.90
2019-03-22T23:24:09.069Z,13.90
2019-03-22T23:26:37.633Z,13.90
2019-03-22T23:29:07.887Z,13.90
2019-03-22T23:31:36.483Z,13.80
2019-03-22T23:34:06.667Z,13.80
2019-03-22T23:36:35.354Z,13.80
2019-03-22T23:39:05.458Z,13.80
2019-03-22T23:41:34.044Z,13.80
2019-03-22T23:44:02.721Z,13.80
2019-03-22T23:46:31.273Z,13.70
2019-03-22T23:48:59.876Z,13.70
2019-03-22T23:51:30.157Z,13.70
2019-03-22T23:53:58.744Z,13.70
2019-03-22T23:56:27.327Z,13.60
2019-03-22T23:58:55.902Z,13.60
